createdAt,value
2022-08-02T00:00:58.920Z,101608.91
2022-08-02T00:06:01.565Z,101625.19
2022-08-02T00:11:04.296Z,101617.81
2022-08-02T00:16:08.635Z,101619.56
2022-08-02T00:21:11.666Z,101616.13
2022-08-02T00:26:14.356Z,101608.94
2022-08-02T00:31:18.280Z,101611.19
2022-08-02T00:36:21.248Z,101603.69
2022-08-02T00:41:24.031Z,101611.09
2022-08-02T00:46:28.073Z,101609.50
2022-08-02T00:51:30.711Z,101613.72
2022-08-02T00:56:33.546Z,101623.72
2022-08-02T01:01:56.675Z,101618.03
2022-08-02T01:07:00.767Z,101606.34
2022-08-02T01:12:03.338Z,101615.25
2022-08-02T01:17:10.880Z,101608.31
2022-08-02T01:22:34.659Z,101604.75
2022-08-02T01:27:55.929Z,101604.38
2022-08-02T01:33:02.688Z,101596.28
2022-08-02T01:38:10.352Z,101588.41
2022-08-02T01:43:14.108Z,101583.13
2022-08-02T01:48:18.940Z,101588.97
2022-08-02T01:53:25.217Z,101580.47
2022-08-02T01:58:31.950Z,101582.34
2022-08-02T02:03:41.584Z,101577.66
2022-08-02T02:08:45.639Z,101581.31
2022-08-02T02:13:50.119Z,101580.34
2022-08-02T02:18:55.585Z,101580.19
2022-08-02T02:23:59.401Z,101573.91
2022-08-02T02:29:03.947Z,101565.97
2022-08-02T02:34:12.115Z,101564.34
2022-08-02T02:39:16.371Z,101544.19
2022-08-02T02:44:21.499Z,101498.03
2022-08-02T02:49:26.978Z,101534.66
2022-08-02T02:54:34.068Z,101529.72
2022-08-02T02:59:48.901Z,101535.09
2022-08-02T03:04:58.076Z,101531.09
2022-08-02T03:10:01.053Z,101525.97
2022-08-02T03:15:08.127Z,101534.50
2022-08-02T03:20:14.618Z,101526.03
2022-08-02T03:25:18.662Z,101517.81
2022-08-02T03:30:24.559Z,101519.34
2022-08-02T03:35:28.807Z,101507.25
2022-08-02T03:40:32.624Z,101508.56
2022-08-02T03:45:35.505Z,101510.81
2022-08-02T03:50:40.995Z,101525.50
2022-08-02T03:55:43.822Z,101525.63
2022-08-02T04:00:46.866Z,101515.47
2022-08-02T04:06:04.037Z,101516.69
2022-08-02T04:11:26.003Z,101513.78
2022-08-02T04:16:35.325Z,101515.97
2022-08-02T04:21:50.240Z,101519.75
2022-08-02T04:26:57.984Z,101527.69
2022-08-02T04:32:09.941Z,101531.06
2022-08-02T04:37:14.818Z,101501.19
2022-08-02T04:42:21.757Z,101532.91
2022-08-02T04:48:01.903Z,101533.06
2022-08-02T04:52:48.710Z,101539.25
2022-08-02T04:57:58.027Z,101543.44
2022-08-02T05:03:01.319Z,101539.25
2022-08-02T05:08:05.758Z,101534.41
2022-08-02T05:13:08.371Z,101536.03
2022-08-02T05:18:12.269Z,101529.84
2022-08-02T05:23:17.201Z,101531.53
2022-08-02T05:28:20.114Z,101531.19
2022-08-02T05:33:22.708Z,101528.28
2022-08-02T05:38:28.502Z,101530.91
2022-08-02T05:43:32.166Z,101525.66
2022-08-02T05:48:35.910Z,101530.69
2022-08-02T05:53:47.616Z,101517.72
2022-08-02T05:58:54.059Z,101513.94
2022-08-02T06:04:00.927Z,101519.09
2022-08-02T06:09:09.977Z,101513.63
2022-08-02T06:14:13.105Z,101511.78
2022-08-02T06:19:18.217Z,101506.47
2022-08-02T06:24:23.580Z,101515.09
2022-08-02T06:29:27.187Z,101515.81
2022-08-02T06:34:29.828Z,101514.16
2022-08-02T06:39:40.602Z,101525.19
2022-08-02T06:44:48.089Z,101508.53
2022-08-02T06:49:54.598Z,101505.69
2022-08-02T06:55:00.061Z,101509.59
2022-08-02T07:00:07.103Z,101516.06
2022-08-02T07:05:10.597Z,101511.50
2022-08-02T07:10:15.564Z,101504.56
2022-08-02T07:15:18.144Z,101511.34
2022-08-02T07:20:20.712Z,101509.22
2022-08-02T07:25:25.245Z,101513.41
2022-08-02T07:30:47.880Z,101512.31
2022-08-02T07:35:50.571Z,101507.72
2022-08-02T07:40:55.314Z,101503.81
2022-08-02T07:46:01.069Z,101502.59
2022-08-02T07:51:03.878Z,101501.25
2022-08-02T07:56:07.978Z,101495.19
2022-08-02T08:01:10.690Z,101506.72
2022-08-02T08:06:13.341Z,101490.03
2022-08-02T08:11:17.297Z,101484.38
2022-08-02T08:16:20.405Z,101484.91
2022-08-02T08:21:23.233Z,101485.91
2022-08-02T08:26:27.238Z,101488.63
2022-08-02T08:31:29.836Z,101490.38
2022-08-02T08:36:32.536Z,101479.84
2022-08-02T08:41:38.572Z,101481.91
2022-08-02T08:46:44.300Z,101481.09
2022-08-02T08:51:47.079Z,101476.38
2022-08-02T08:56:53.571Z,101474.66
2022-08-02T09:01:57.026Z,101476.44
2022-08-02T09:06:59.617Z,101458.25
2022-08-02T09:12:15.764Z,101469.16
2022-08-02T09:17:21.765Z,101473.56
2022-08-02T09:22:24.673Z,101464.19
2022-08-02T09:27:28.641Z,101463.34
2022-08-02T09:32:44.811Z,101459.78
2022-08-02T09:37:48.744Z,101456.44
2022-08-02T09:43:00.459Z,101421.63
2022-08-02T09:48:03.665Z,101463.72
2022-08-02T09:53:07.199Z,101463.72
2022-08-02T09:58:21.065Z,101456.47
2022-08-02T10:03:26.750Z,101464.59
2022-08-02T10:08:37.693Z,101450.41
2022-08-02T10:13:41.634Z,101464.72
2022-08-02T10:18:44.890Z,101449.00
2022-08-02T10:23:50.395Z,101448.81
2022-08-02T10:28:55.135Z,101438.16
2022-08-02T10:34:00.986Z,101437.00
2022-08-02T10:39:03.893Z,101429.03
2022-08-02T10:44:07.846Z,101424.13
2022-08-02T10:49:42.664Z,101419.03
2022-08-02T10:54:50.799Z,101422.50
2022-08-02T11:00:17.336Z,101440.38
2022-08-02T11:05:42.987Z,101428.31
2022-08-02T11:10:46.324Z,101427.06
2022-08-02T11:16:01.156Z,101427.06
2022-08-02T11:21:23.721Z,101428.09
2022-08-02T11:26:46.302Z,101432.63
2022-08-02T11:31:50.498Z,101416.22
2022-08-02T11:36:54.337Z,101412.00
2022-08-02T11:41:58.812Z,101429.34
2022-08-02T11:47:04.411Z,101408.16
2022-08-02T11:52:11.111Z,101420.56
2022-08-02T11:57:20.299Z,101407.41
2022-08-02T12:02:28.913Z,101418.63
2022-08-02T12:07:35.007Z,101414.34
2022-08-02T12:12:49.072Z,101411.31
2022-08-02T12:18:10.906Z,101401.44
2022-08-02T12:23:14.446Z,101399.78
2022-08-02T12:28:20.330Z,101396.06
2022-08-02T12:33:26.881Z,101409.81
2022-08-02T12:38:29.713Z,101406.91
2022-08-02T12:43:32.754Z,101404.34
2022-08-02T12:48:40.449Z,101389.81
2022-08-02T12:53:59.550Z,101392.34
2022-08-02T12:59:02.981Z,101384.38
2022-08-02T13:04:13.644Z,101389.81
2022-08-02T13:09:17.861Z,101366.09
2022-08-02T13:14:20.917Z,101356.63
2022-08-02T13:19:24.852Z,101364.53
2022-08-02T13:24:39.597Z,101359.19
2022-08-02T13:29:50.870Z,101344.50
2022-08-02T13:34:54.856Z,101368.72
2022-08-02T13:40:19.154Z,101362.19
2022-08-02T13:45:20.100Z,101351.66
2022-08-02T13:50:24.970Z,101357.22
2022-08-02T13:55:28.429Z,101317.72
2022-08-02T14:00:34.214Z,101341.53
2022-08-02T14:05:47.235Z,101343.47
2022-08-02T14:10:52.482Z,101333.41
2022-08-02T14:15:55.155Z,101332.44
2022-08-02T14:20:59.206Z,101334.22
2022-08-02T14:26:01.811Z,101328.59
2022-08-02T14:31:04.665Z,101320.22
2022-08-02T14:36:13.387Z,101317.25
2022-08-02T14:41:20.554Z,101318.09
2022-08-02T14:46:24.281Z,101306.59
2022-08-02T14:51:28.450Z,101307.38
2022-08-02T14:56:31.237Z,101311.44
2022-08-02T15:01:34.060Z,101294.34
2022-08-02T15:06:38.809Z,101291.75
2022-08-02T15:11:47.020Z,101296.31
2022-08-02T15:16:59.108Z,101291.63
2022-08-02T15:22:03.342Z,101293.59
2022-08-02T15:27:10.195Z,101275.03
2022-08-02T15:32:13.575Z,101272.88
2022-08-02T15:37:17.854Z,101264.84
2022-08-02T15:42:20.876Z,101280.34
2022-08-02T15:47:33.129Z,101264.25
2022-08-02T15:52:37.523Z,101268.03
2022-08-02T15:57:40.222Z,101261.00
2022-08-02T16:02:42.984Z,101261.81
2022-08-02T16:07:47.546Z,101260.22
2022-08-02T16:12:50.245Z,101257.88
2022-08-02T16:17:53.998Z,101255.38
2022-08-02T16:22:59.076Z,101256.41
2022-08-02T16:28:08.183Z,101245.28
2022-08-02T16:33:11.318Z,101246.19
2022-08-02T16:38:15.267Z,101242.09
2022-08-02T16:43:19.934Z,101223.00
2022-08-02T16:48:23.607Z,101219.56
2022-08-02T16:53:36.603Z,101210.00
2022-08-02T16:58:39.508Z,101204.19
2022-08-02T17:03:56.550Z,101208.53
2022-08-02T17:09:02.011Z,101216.69
2022-08-02T17:14:04.613Z,101215.66
2022-08-02T17:19:07.441Z,101206.28
2022-08-02T17:24:11.406Z,101209.34
2022-08-02T17:29:17.690Z,101216.75
2022-08-02T17:34:26.984Z,101208.94
2022-08-02T17:39:34.304Z,101224.84
2022-08-02T17:44:45.993Z,101215.81
2022-08-02T17:49:53.510Z,101186.06
2022-08-02T17:54:57.561Z,101213.38
2022-08-02T18:00:03.707Z,101220.13
2022-08-02T18:05:11.882Z,101214.81
2022-08-02T18:10:19.207Z,101197.50
2022-08-02T18:15:22.847Z,101216.31
2022-08-02T18:20:25.662Z,101214.56
2022-08-02T18:25:36.822Z,101216.56
2022-08-02T18:30:46.745Z,101215.59
2022-08-02T18:35:51.085Z,101218.63
2022-08-02T18:40:55.124Z,101214.03
2022-08-02T18:46:05.287Z,101223.44
2022-08-02T18:51:10.040Z,101211.31
2022-08-02T18:56:20.339Z,101224.31
2022-08-02T19:01:31.857Z,101217.50
2022-08-02T19:06:36.121Z,101224.41
2022-08-02T19:11:41.444Z,101221.94
2022-08-02T19:16:50.812Z,101219.69
2022-08-02T19:27:25.639Z,101205.56
2022-08-02T19:32:41.531Z,101223.78
2022-08-02T19:37:51.484Z,101226.75
2022-08-02T19:44:20.896Z,101217.25
2022-08-02T19:48:23.866Z,101227.91
2022-08-02T19:53:28.556Z,101229.00
2022-08-02T19:58:36.592Z,101233.06
2022-08-02T20:03:51.325Z,101240.91
2022-08-02T20:08:57.095Z,101243.19
2022-08-02T20:14:03.710Z,101242.56
2022-08-02T20:19:08.033Z,101242.56
2022-08-02T20:24:10.705Z,101242.63
2022-08-02T20:29:14.655Z,101242.31
2022-08-02T20:34:17.298Z,101251.69
2022-08-02T20:39:21.950Z,101245.13
2022-08-02T20:50:03.047Z,101258.22
2022-08-02T20:55:08.072Z,101246.78
2022-08-02T21:00:23.377Z,101243.78
2022-08-02T21:05:26.738Z,101250.03
2022-08-02T21:10:51.942Z,101242.22
2022-08-02T21:16:07.873Z,101226.22
2022-08-02T21:21:11.672Z,101242.97
2022-08-02T21:26:19.905Z,101241.59
2022-08-02T21:31:32.002Z,101243.44
2022-08-02T21:36:38.680Z,101240.56
2022-08-02T21:47:11.122Z,101242.63
2022-08-02T21:52:15.495Z,101149.22
2022-08-02T21:57:19.697Z,101212.28
2022-08-02T22:02:30.518Z,101239.94
2022-08-02T22:07:38.313Z,101244.84
2022-08-02T22:12:41.364Z,101245.50
2022-08-02T22:17:53.011Z,101256.00
2022-08-02T22:23:12.802Z,101254.47
2022-08-02T22:28:38.825Z,101251.47
2022-08-02T22:34:00.227Z,101252.84
2022-08-02T22:39:05.879Z,101248.75
2022-08-02T22:44:22.239Z,101252.47
2022-08-02T22:49:38.226Z,101245.09
2022-08-02T22:54:46.949Z,101256.81
2022-08-02T22:58:59.153Z,101225.66
2022-08-02T22:59:03.343Z,101232.47
2022-08-02T22:59:08.077Z,101232.16
2022-08-02T22:59:49.519Z,101252.13
2022-08-02T23:04:53.632Z,101255.94
2022-08-02T23:09:56.265Z,101250.91
2022-08-02T23:14:59.070Z,101249.03
2022-08-02T23:20:03.184Z,101241.41
2022-08-02T23:25:08.414Z,101242.97
2022-08-02T23:30:11.560Z,101165.63
2022-08-02T23:35:17.277Z,101255.03
2022-08-02T23:40:39.572Z,101251.88
2022-08-02T23:45:44.420Z,101256.81
2022-08-02T23:50:48.480Z,101260.44
2022-08-02T23:55:51.205Z,101248.69
